sensor_id;sensor_type;location;lat;lon;timestamp;P1;durP1;ratioP1;P2;durP2;ratioP2
8881;SDS011;4477;48.736;9.176;2023-04-25T00:01:20;4.07;;;3.67;;
8881;SDS011;4477;48.736;9.176;2023-04-25T00:03:47;3.50;;;3.20;;
8881;SDS011;4477;48.736;9.176;2023-04-25T00:06:15;3.97;;;3.57;;
8881;SDS011;4477;48.736;9.176;2023-04-25T00:08:44;4.37;;;3.97;;
8881;SDS011;4477;48.736;9.176;2023-04-25T00:11:11;3.90;;;3.60;;
8881;SDS011;4477;48.736;9.176;2023-04-25T00:13:38;4.47;;;3.67;;
8881;SDS011;4477;48.736;9.176;2023-04-25T00:16:06;4.63;;;3.67;;
8881;SDS011;4477;48.736;9.176;2023-04-25T00:18:34;4.23;;;3.83;;
8881;SDS011;4477;48.736;9.176;2023-04-25T00:21:01;4.23;;;3.80;;
8881;SDS011;4477;48.736;9.176;2023-04-25T00:23:31;3.83;;;3.53;;
8881;SDS011;4477;48.736;9.176;2023-04-25T00:26:02;4.20;;;3.60;;
8881;SDS011;4477;48.736;9.176;2023-04-25T00:28:29;6.00;;;3.40;;
8881;SDS011;4477;48.736;9.176;2023-04-25T00:30:56;3.50;;;3.20;;
8881;SDS011;4477;48.736;9.176;2023-04-25T00:33:23;3.10;;;2.90;;
8881;SDS011;4477;48.736;9.176;2023-04-25T00:35:50;3.60;;;3.30;;
8881;SDS011;4477;48.736;9.176;2023-04-25T00:38:17;3.87;;;2.90;;
8881;SDS011;4477;48.736;9.176;2023-04-25T00:40:44;2.97;;;2.77;;
8881;SDS011;4477;48.736;9.176;2023-04-25T00:43:13;4.63;;;3.30;;
8881;SDS011;4477;48.736;9.176;2023-04-25T00:45:40;4.07;;;3.23;;
8881;SDS011;4477;48.736;9.176;2023-04-25T00:48:07;3.70;;;3.40;;
8881;SDS011;4477;48.736;9.176;2023-04-25T00:50:34;4.13;;;2.90;;
8881;SDS011;4477;48.736;9.176;2023-04-25T00:53:02;4.30;;;3.43;;
8881;SDS011;4477;48.736;9.176;2023-04-25T00:55:30;4.10;;;2.90;;
8881;SDS011;4477;48.736;9.176;2023-04-25T00:57:57;3.50;;;3.20;;
8881;SDS011;4477;48.736;9.176;2023-04-25T01:00:26;3.63;;;3.33;;
8881;SDS011;4477;48.736;9.176;2023-04-25T01:02:53;3.93;;;2.97;;
8881;SDS011;4477;48.736;9.176;2023-04-25T01:05:20;3.77;;;3.03;;
8881;SDS011;4477;48.736;9.176;2023-04-25T01:07:48;5.37;;;3.40;;
8881;SDS011;4477;48.736;9.176;2023-04-25T01:10:15;4.30;;;3.60;;
8881;SDS011;4477;48.736;9.176;2023-04-25T01:12:42;4.83;;;3.40;;
8881;SDS011;4477;48.736;9.176;2023-04-25T01:15:09;4.17;;;3.63;;
8881;SDS011;4477;48.736;9.176;2023-04-25T01:17:38;3.60;;;3.30;;
8881;SDS011;4477;48.736;9.176;2023-04-25T01:20:06;4.17;;;3.50;;
8881;SDS011;4477;48.736;9.176;2023-04-25T01:22:36;4.40;;;4.00;;
8881;SDS011;4477;48.736;9.176;2023-04-25T01:25:04;4.17;;;3.70;;
8881;SDS011;4477;48.736;9.176;2023-04-25T01:27:31;6.77;;;4.03;;
8881;SDS011;4477;48.736;9.176;2023-04-25T01:29:59;6.27;;;3.90;;
8881;SDS011;4477;48.736;9.176;2023-04-25T01:32:26;4.30;;;3.90;;
8881;SDS011;4477;48.736;9.176;2023-04-25T01:34:53;5.03;;;4.13;;
8881;SDS011;4477;48.736;9.176;2023-04-25T01:37:20;4.07;;;3.53;;
8881;SDS011;4477;48.736;9.176;2023-04-25T01:39:49;4.13;;;3.73;;
8881;SDS011;4477;48.736;9.176;2023-04-25T01:42:16;5.03;;;3.83;;
8881;SDS011;4477;48.736;9.176;2023-04-25T01:44:43;4.17;;;3.80;;
8881;SDS011;4477;48.736;9.176;2023-04-25T01:47:10;4.43;;;4.03;;
8881;SDS011;4477;48.736;9.176;2023-04-25T01:49:37;4.93;;;4.10;;
8881;SDS011;4477;48.736;9.176;2023-04-25T01:52:04;4.30;;;3.90;;
8881;SDS011;4477;48.736;9.176;2023-04-25T01:54:31;4.53;;;4.00;;
8881;SDS011;4477;48.736;9.176;2023-04-25T01:57:00;4.27;;;3.87;;
8881;SDS011;4477;48.736;9.176;2023-04-25T01:59:28;4.93;;;4.13;;
8881;SDS011;4477;48.736;9.176;2023-04-25T02:01:55;4.63;;;3.90;;
8881;SDS011;4477;48.736;9.176;2023-04-25T02:04:22;4.40;;;4.00;;
8881;SDS011;4477;48.736;9.176;2023-04-25T02:06:49;8.67;;;4.40;;
8881;SDS011;4477;48.736;9.176;2023-04-25T02:09:16;6.23;;;4.43;;
8881;SDS011;4477;48.736;9.176;2023-04-25T02:11:43;5.03;;;4.00;;
8881;SDS011;4477;48.736;9.176;2023-04-25T02:14:12;4.90;;;3.77;;
8881;SDS011;4477;48.736;9.176;2023-04-25T02:16:39;3.73;;;3.40;;
8881;SDS011;4477;48.736;9.176;2023-04-25T02:19:08;5.23;;;3.30;;
8881;SDS011;4477;48.736;9.176;2023-04-25T02:21:36;4.00;;;3.07;;
8881;SDS011;4477;48.736;9.176;2023-04-25T02:24:03;3.97;;;2.90;;
8881;SDS011;4477;48.736;9.176;2023-04-25T02:26:30;4.00;;;2.70;;
8881;SDS011;4477;48.736;9.176;2023-04-25T02:28:57;3.87;;;3.27;;
8881;SDS011;4477;48.736;9.176;2023-04-25T02:31:26;4.33;;;3.10;;
8881;SDS011;4477;48.736;9.176;2023-04-25T02:33:53;4.70;;;3.33;;
8881;SDS011;4477;48.736;9.176;2023-04-25T02:36:20;5.33;;;3.20;;
8881;SDS011;4477;48.736;9.176;2023-04-25T02:38:47;3.63;;;3.30;;
8881;SDS011;4477;48.736;9.176;2023-04-25T02:41:15;4.03;;;3.60;;
8881;SDS011;4477;48.736;9.176;2023-04-25T02:43:43;4.67;;;3.53;;
8881;SDS011;4477;48.736;9.176;2023-04-25T02:46:10;3.77;;;3.47;;
8881;SDS011;4477;48.736;9.176;2023-04-25T02:48:38;4.27;;;3.83;;
8881;SDS011;4477;48.736;9.176;2023-04-25T02:51:05;5.53;;;3.60;;
8881;SDS011;4477;48.736;9.176;2023-04-25T02:53:35;4.27;;;3.50;;
8881;SDS011;4477;48.736;9.176;2023-04-25T02:56:02;5.30;;;3.67;;
8881;SDS011;4477;48.736;9.176;2023-04-25T02:58:30;4.13;;;3.60;;
8881;SDS011;4477;48.736;9.176;2023-04-25T03:00:57;3.77;;;3.47;;
8881;SDS011;4477;48.736;9.176;2023-04-25T03:03:24;3.97;;;3.57;;
8881;SDS011;4477;48.736;9.176;2023-04-25T03:08:44;4.03;;;3.63;;
8881;SDS011;4477;48.736;9.176;2023-04-25T03:11:11;4.97;;;3.50;;
8881;SDS011;4477;48.736;9.176;2023-04-25T03:13:38;5.73;;;3.50;;
8881;SDS011;4477;48.736;9.176;2023-04-25T03:16:05;5.33;;;3.57;;
8881;SDS011;4477;48.736;9.176;2023-04-25T03:18:32;5.13;;;3.83;;
8881;SDS011;4477;48.736;9.176;2023-04-25T03:23:55;4.03;;;3.50;;
8881;SDS011;4477;48.736;9.176;2023-04-25T03:26:22;3.97;;;3.67;;
8881;SDS011;4477;48.736;9.176;2023-04-25T03:28:49;4.23;;;3.77;;
8881;SDS011;4477;48.736;9.176;2023-04-25T03:31:16;4.67;;;3.70;;
8881;SDS011;4477;48.736;9.176;2023-04-25T03:33:43;4.50;;;3.53;;
8881;SDS011;4477;48.736;9.176;2023-04-25T03:36:11;3.63;;;3.30;;
8881;SDS011;4477;48.736;9.176;2023-04-25T03:38:38;4.67;;;3.50;;
8881;SDS011;4477;48.736;9.176;2023-04-25T03:41:07;3.60;;;3.30;;
8881;SDS011;4477;48.736;9.176;2023-04-25T03:43:34;4.90;;;3.50;;
8881;SDS011;4477;48.736;9.176;2023-04-25T03:46:01;5.13;;;3.30;;
8881;SDS011;4477;48.736;9.176;2023-04-25T03:48:29;5.10;;;3.80;;
8881;SDS011;4477;48.736;9.176;2023-04-25T03:50:56;3.57;;;3.27;;
8881;SDS011;4477;48.736;9.176;2023-04-25T03:53:23;4.00;;;3.60;;
8881;SDS011;4477;48.736;9.176;2023-04-25T03:55:50;4.00;;;3.60;;
8881;SDS011;4477;48.736;9.176;2023-04-25T03:58:18;4.33;;;3.87;;
8881;SDS011;4477;48.736;9.176;2023-04-25T04:00:45;4.70;;;3.80;;
8881;SDS011;4477;48.736;9.176;2023-04-25T04:03:12;5.93;;;4.07;;
8881;SDS011;4477;48.736;9.176;2023-04-25T04:05:40;5.90;;;3.80;;
8881;SDS011;4477;48.736;9.176;2023-04-25T04:08:07;5.73;;;4.50;;
8881;SDS011;4477;48.736;9.176;2023-04-25T04:10:34;6.47;;;4.57;;
8881;SDS011;4477;48.736;9.176;2023-04-25T04:13:01;7.80;;;4.77;;
8881;SDS011;4477;48.736;9.176;2023-04-25T04:15:30;6.80;;;4.70;;
8881;SDS011;4477;48.736;9.176;2023-04-25T04:17:58;5.17;;;4.40;;
8881;SDS011;4477;48.736;9.176;2023-04-25T04:20:27;8.83;;;4.87;;
8881;SDS011;4477;48.736;9.176;2023-04-25T04:22:55;5.13;;;4.63;;
8881;SDS011;4477;48.736;9.176;2023-04-25T04:25:22;6.23;;;4.60;;
8881;SDS011;4477;48.736;9.176;2023-04-25T04:27:49;5.80;;;4.70;;
8881;SDS011;4477;48.736;9.176;2023-04-25T04:30:19;5.70;;;4.57;;
8881;SDS011;4477;48.736;9.176;2023-04-25T04:32:48;5.37;;;4.87;;
8881;SDS011;4477;48.736;9.176;2023-04-25T04:35:15;8.87;;;5.50;;
8881;SDS011;4477;48.736;9.176;2023-04-25T04:37:44;4.93;;;4.30;;
8881;SDS011;4477;48.736;9.176;2023-04-25T04:40:13;5.97;;;5.37;;
8881;SDS011;4477;48.736;9.176;2023-04-25T04:42:41;8.07;;;4.97;;
8881;SDS011;4477;48.736;9.176;2023-04-25T04:45:09;6.90;;;5.33;;
8881;SDS011;4477;48.736;9.176;2023-04-25T04:47:36;7.20;;;4.70;;
8881;SDS011;4477;48.736;9.176;2023-04-25T04:50:06;5.80;;;5.20;;
8881;SDS011;4477;48.736;9.176;2023-04-25T04:52:34;6.50;;;5.23;;
8881;SDS011;4477;48.736;9.176;2023-04-25T04:55:02;7.47;;;5.50;;
8881;SDS011;4477;48.736;9.176;2023-04-25T04:57:29;6.10;;;5.30;;
8881;SDS011;4477;48.736;9.176;2023-04-25T04:59:57;5.87;;;5.03;;
8881;SDS011;4477;48.736;9.176;2023-04-25T05:02:25;7.23;;;5.30;;
8881;SDS011;4477;48.736;9.176;2023-04-25T05:04:52;5.80;;;5.20;;
8881;SDS011;4477;48.736;9.176;2023-04-25T05:07:21;5.53;;;4.80;;
8881;SDS011;4477;48.736;9.176;2023-04-25T05:09:48;6.43;;;4.53;;
8881;SDS011;4477;48.736;9.176;2023-04-25T05:12:15;8.17;;;4.73;;
8881;SDS011;4477;48.736;9.176;2023-04-25T05:14:42;5.10;;;4.60;;
8881;SDS011;4477;48.736;9.176;2023-04-25T05:17:09;5.37;;;4.27;;
8881;SDS011;4477;48.736;9.176;2023-04-25T05:19:36;5.57;;;5.07;;
8881;SDS011;4477;48.736;9.176;2023-04-25T05:22:04;6.57;;;5.03;;
8881;SDS011;4477;48.736;9.176;2023-04-25T05:24:32;9.23;;;5.33;;
8881;SDS011;4477;48.736;9.176;2023-04-25T05:27:00;7.63;;;4.87;;
8881;SDS011;4477;48.736;9.176;2023-04-25T05:29:27;6.50;;;4.87;;
8881;SDS011;4477;48.736;9.176;2023-04-25T05:31:54;5.73;;;4.50;;
8881;SDS011;4477;48.736;9.176;2023-04-25T05:34:21;6.53;;;4.47;;
8881;SDS011;4477;48.736;9.176;2023-04-25T05:36:48;5.80;;;4.57;;
8881;SDS011;4477;48.736;9.176;2023-04-25T05:39:15;7.03;;;4.90;;
8881;SDS011;4477;48.736;9.176;2023-04-25T05:41:44;6.73;;;4.60;;
8881;SDS011;4477;48.736;9.176;2023-04-25T05:44:11;6.47;;;5.00;;
8881;SDS011;4477;48.736;9.176;2023-04-25T05:46:38;5.87;;;4.97;;
8881;SDS011;4477;48.736;9.176;2023-04-25T05:49:05;6.90;;;5.03;;
8881;SDS011;4477;48.736;9.176;2023-04-25T05:51:32;5.73;;;4.70;;
8881;SDS011;4477;48.736;9.176;2023-04-25T05:54:00;7.37;;;4.60;;
8881;SDS011;4477;48.736;9.176;2023-04-25T05:56:27;6.53;;;5.10;;
8881;SDS011;4477;48.736;9.176;2023-04-25T05:58:55;5.27;;;4.23;;
8881;SDS011;4477;48.736;9.176;2023-04-25T06:01:22;5.33;;;4.03;;
8881;SDS011;4477;48.736;9.176;2023-04-25T06:03:50;4.73;;;4.17;;
8881;SDS011;4477;48.736;9.176;2023-04-25T06:06:17;5.80;;;4.63;;
8881;SDS011;4477;48.736;9.176;2023-04-25T06:08:44;5.20;;;4.43;;
8881;SDS011;4477;48.736;9.176;2023-04-25T06:11:12;5.80;;;4.50;;
8881;SDS011;4477;48.736;9.176;2023-04-25T06:13:39;5.27;;;4.20;;
8881;SDS011;4477;48.736;9.176;2023-04-25T06:16:07;5.57;;;4.20;;
8881;SDS011;4477;48.736;9.176;2023-04-25T06:18:35;4.97;;;4.47;;
8881;SDS011;4477;48.736;9.176;2023-04-25T06:21:02;6.27;;;4.73;;
8881;SDS011;4477;48.736;9.176;2023-04-25T06:23:29;6.27;;;5.10;;
8881;SDS011;4477;48.736;9.176;2023-04-25T06:25:56;7.23;;;4.50;;
8881;SDS011;4477;48.736;9.176;2023-04-25T06:28:23;6.10;;;4.30;;
8881;SDS011;4477;48.736;9.176;2023-04-25T06:30:50;6.53;;;4.47;;
8881;SDS011;4477;48.736;9.176;2023-04-25T06:33:19;4.90;;;4.40;;
8881;SDS011;4477;48.736;9.176;2023-04-25T06:35:47;5.17;;;4.33;;
8881;SDS011;4477;48.736;9.176;2023-04-25T06:38:14;5.43;;;4.03;;
8881;SDS011;4477;48.736;9.176;2023-04-25T06:40:42;6.60;;;5.30;;
8881;SDS011;4477;48.736;9.176;2023-04-25T06:43:09;7.93;;;5.17;;
8881;SDS011;4477;48.736;9.176;2023-04-25T06:45:36;5.83;;;4.77;;
8881;SDS011;4477;48.736;9.176;2023-04-25T06:48:03;5.13;;;4.70;;
8881;SDS011;4477;48.736;9.176;2023-04-25T06:50:32;5.50;;;5.00;;
8881;SDS011;4477;48.736;9.176;2023-04-25T06:52:59;6.77;;;5.63;;
8881;SDS011;4477;48.736;9.176;2023-04-25T06:55:26;6.10;;;5.50;;
8881;SDS011;4477;48.736;9.176;2023-04-25T06:57:54;6.50;;;5.60;;
8881;SDS011;4477;48.736;9.176;2023-04-25T07:00:21;7.77;;;5.93;;
8881;SDS011;4477;48.736;9.176;2023-04-25T07:02:48;8.67;;;7.10;;
8881;SDS011;4477;48.736;9.176;2023-04-25T07:05:15;7.43;;;6.13;;
8881;SDS011;4477;48.736;9.176;2023-04-25T07:07:44;7.17;;;6.47;;
8881;SDS011;4477;48.736;9.176;2023-04-25T07:10:11;6.90;;;6.30;;
8881;SDS011;4477;48.736;9.176;2023-04-25T07:12:38;6.40;;;5.80;;
8881;SDS011;4477;48.736;9.176;2023-04-25T07:15:05;6.80;;;6.20;;
8881;SDS011;4477;48.736;9.176;2023-04-25T07:17:35;7.10;;;6.37;;
8881;SDS011;4477;48.736;9.176;2023-04-25T07:20:02;7.57;;;6.30;;
8881;SDS011;4477;48.736;9.176;2023-04-25T07:22:30;7.33;;;6.50;;
8881;SDS011;4477;48.736;9.176;2023-04-25T07:24:59;7.93;;;6.80;;
8881;SDS011;4477;48.736;9.176;2023-04-25T07:27:26;8.40;;;7.37;;
8881;SDS011;4477;48.736;9.176;2023-04-25T07:29:53;8.13;;;6.67;;
8881;SDS011;4477;48.736;9.176;2023-04-25T07:32:20;8.40;;;7.60;;
8881;SDS011;4477;48.736;9.176;2023-04-25T07:34:47;10.37;;;8.40;;
8881;SDS011;4477;48.736;9.176;2023-04-25T07:37:15;8.43;;;7.37;;
8881;SDS011;4477;48.736;9.176;2023-04-25T07:39:43;7.70;;;7.00;;
8881;SDS011;4477;48.736;9.176;2023-04-25T07:42:13;7.80;;;7.10;;
8881;SDS011;4477;48.736;9.176;2023-04-25T07:44:40;8.63;;;7.83;;
8881;SDS011;4477;48.736;9.176;2023-04-25T07:47:07;9.40;;;8.40;;
8881;SDS011;4477;48.736;9.176;2023-04-25T07:49:35;8.63;;;7.70;;
8881;SDS011;4477;48.736;9.176;2023-04-25T07:52:02;9.03;;;8.00;;
8881;SDS011;4477;48.736;9.176;2023-04-25T07:54:30;11.60;;;9.40;;
8881;SDS011;4477;48.736;9.176;2023-04-25T07:56:57;10.50;;;9.40;;
8881;SDS011;4477;48.736;9.176;2023-04-25T07:59:26;10.03;;;8.93;;
8881;SDS011;4477;48.736;9.176;2023-04-25T08:01:53;9.87;;;8.97;;
8881;SDS011;4477;48.736;9.176;2023-04-25T08:04:21;9.57;;;8.67;;
8881;SDS011;4477;48.736;9.176;2023-04-25T08:06:49;9.03;;;7.60;;
8881;SDS011;4477;48.736;9.176;2023-04-25T08:09:16;8.70;;;7.80;;
8881;SDS011;4477;48.736;9.176;2023-04-25T08:11:43;8.23;;;7.13;;
8881;SDS011;4477;48.736;9.176;2023-04-25T08:14:10;8.40;;;7.60;;
8881;SDS011;4477;48.736;9.176;2023-04-25T08:16:39;8.47;;;7.57;;
8881;SDS011;4477;48.736;9.176;2023-04-25T08:19:07;8.47;;;7.57;;
8881;SDS011;4477;48.736;9.176;2023-04-25T08:21:34;8.30;;;7.47;;
8881;SDS011;4477;48.736;9.176;2023-04-25T08:24:01;8.50;;;6.80;;
8881;SDS011;4477;48.736;9.176;2023-04-25T08:26:28;8.07;;;7.10;;
8881;SDS011;4477;48.736;9.176;2023-04-25T08:28:56;7.80;;;7.10;;
8881;SDS011;4477;48.736;9.176;2023-04-25T08:31:23;8.43;;;7.40;;
8881;SDS011;4477;48.736;9.176;2023-04-25T08:33:51;8.83;;;7.90;;
8881;SDS011;4477;48.736;9.176;2023-04-25T08:36:18;8.53;;;7.23;;
8881;SDS011;4477;48.736;9.176;2023-04-25T08:38:46;8.53;;;7.73;;
8881;SDS011;4477;48.736;9.176;2023-04-25T08:41:13;8.80;;;7.90;;
8881;SDS011;4477;48.736;9.176;2023-04-25T08:43:41;7.83;;;7.03;;
8881;SDS011;4477;48.736;9.176;2023-04-25T08:46:09;9.00;;;7.83;;
8881;SDS011;4477;48.736;9.176;2023-04-25T08:48:36;9.90;;;8.00;;
8881;SDS011;4477;48.736;9.176;2023-04-25T08:51:05;9.60;;;8.03;;
8881;SDS011;4477;48.736;9.176;2023-04-25T08:53:33;10.63;;;8.60;;
8881;SDS011;4477;48.736;9.176;2023-04-25T08:56:01;10.90;;;9.27;;
8881;SDS011;4477;48.736;9.176;2023-04-25T08:58:28;12.40;;;10.30;;
8881;SDS011;4477;48.736;9.176;2023-04-25T09:00:55;11.97;;;9.63;;
8881;SDS011;4477;48.736;9.176;2023-04-25T09:03:22;12.67;;;10.20;;
8881;SDS011;4477;48.736;9.176;2023-04-25T09:05:50;11.40;;;9.47;;
8881;SDS011;4477;48.736;9.176;2023-04-25T09:08:19;11.20;;;9.00;;
8881;SDS011;4477;48.736;9.176;2023-04-25T09:10:46;9.73;;;8.60;;
8881;SDS011;4477;48.736;9.176;2023-04-25T09:13:14;10.30;;;8.63;;
8881;SDS011;4477;48.736;9.176;2023-04-25T09:15:46;9.33;;;8.10;;
8881;SDS011;4477;48.736;9.176;2023-04-25T09:18:21;8.60;;;7.70;;
8881;SDS011;4477;48.736;9.176;2023-04-25T09:20:48;8.57;;;7.43;;
8881;SDS011;4477;48.736;9.176;2023-04-25T09:23:15;10.87;;;8.20;;
8881;SDS011;4477;48.736;9.176;2023-04-25T09:25:45;9.70;;;8.13;;
8881;SDS011;4477;48.736;9.176;2023-04-25T09:28:14;10.10;;;8.90;;
8881;SDS011;4477;48.736;9.176;2023-04-25T09:30:41;10.23;;;9.03;;
8881;SDS011;4477;48.736;9.176;2023-04-25T09:33:08;16.47;;;10.03;;
8881;SDS011;4477;48.736;9.176;2023-04-25T09:35:36;10.17;;;7.60;;
8881;SDS011;4477;48.736;9.176;2023-04-25T09:38:07;10.13;;;8.60;;
8881;SDS011;4477;48.736;9.176;2023-04-25T09:40:38;10.10;;;9.10;;
8881;SDS011;4477;48.736;9.176;2023-04-25T09:43:09;10.30;;;9.27;;
8881;SDS011;4477;48.736;9.176;2023-04-25T09:45:41;9.30;;;8.30;;
8881;SDS011;4477;48.736;9.176;2023-04-25T09:48:10;8.10;;;7.13;;
8881;SDS011;4477;48.736;9.176;2023-04-25T09:50:37;6.53;;;5.93;;
8881;SDS011;4477;48.736;9.176;2023-04-25T09:53:05;5.93;;;5.33;;
8881;SDS011;4477;48.736;9.176;2023-04-25T09:55:32;6.60;;;6.00;;
8881;SDS011;4477;48.736;9.176;2023-04-25T09:58:02;5.57;;;5.07;;
8881;SDS011;4477;48.736;9.176;2023-04-25T10:00:32;6.20;;;5.60;;
8881;SDS011;4477;48.736;9.176;2023-04-25T10:03:00;6.00;;;5.40;;
8881;SDS011;4477;48.736;9.176;2023-04-25T10:05:30;6.07;;;5.57;;
8881;SDS011;4477;48.736;9.176;2023-04-25T10:07:58;5.73;;;4.83;;
8881;SDS011;4477;48.736;9.176;2023-04-25T10:10:25;6.07;;;5.47;;
8881;SDS011;4477;48.736;9.176;2023-04-25T10:12:53;5.43;;;4.80;;
8881;SDS011;4477;48.736;9.176;2023-04-25T10:15:20;3.80;;;3.50;;
8881;SDS011;4477;48.736;9.176;2023-04-25T10:17:49;2.90;;;2.60;;
8881;SDS011;4477;48.736;9.176;2023-04-25T10:20:17;2.77;;;2.57;;
8881;SDS011;4477;48.736;9.176;2023-04-25T10:22:44;2.10;;;1.97;;
8881;SDS011;4477;48.736;9.176;2023-04-25T10:25:13;2.43;;;2.20;;
8881;SDS011;4477;48.736;9.176;2023-04-25T10:27:40;2.47;;;2.27;;
8881;SDS011;4477;48.736;9.176;2023-04-25T10:30:08;3.23;;;1.97;;
8881;SDS011;4477;48.736;9.176;2023-04-25T10:32:37;2.60;;;2.10;;
8881;SDS011;4477;48.736;9.176;2023-04-25T10:35:12;2.30;;;2.10;;
8881;SDS011;4477;48.736;9.176;2023-04-25T10:40:22;2.30;;;2.10;;
8881;SDS011;4477;48.736;9.176;2023-04-25T10:42:50;2.60;;;2.40;;
8881;SDS011;4477;48.736;9.176;2023-04-25T10:45:18;2.93;;;2.60;;
8881;SDS011;4477;48.736;9.176;2023-04-25T10:47:46;3.27;;;2.97;;
8881;SDS011;4477;48.736;9.176;2023-04-25T10:50:15;2.60;;;2.40;;
8881;SDS011;4477;48.736;9.176;2023-04-25T10:52:42;3.30;;;2.03;;
8881;SDS011;4477;48.736;9.176;2023-04-25T10:55:10;2.40;;;2.20;;
8881;SDS011;4477;48.736;9.176;2023-04-25T10:57:38;2.40;;;2.20;;
8881;SDS011;4477;48.736;9.176;2023-04-25T11:00:07;2.43;;;2.23;;
8881;SDS011;4477;48.736;9.176;2023-04-25T11:02:42;2.00;;;1.90;;
8881;SDS011;4477;48.736;9.176;2023-04-25T11:05:10;2.87;;;2.20;;
8881;SDS011;4477;48.736;9.176;2023-04-25T11:07:42;3.30;;;2.93;;
8881;SDS011;4477;48.736;9.176;2023-04-25T11:10:11;3.90;;;3.50;;
8881;SDS011;4477;48.736;9.176;2023-04-25T11:12:38;4.13;;;3.73;;
8881;SDS011;4477;48.736;9.176;2023-04-25T11:15:06;4.80;;;4.40;;
8881;SDS011;4477;48.736;9.176;2023-04-25T11:17:33;5.23;;;4.83;;
8881;SDS011;4477;48.736;9.176;2023-04-25T11:20:01;6.17;;;5.30;;
8881;SDS011;4477;48.736;9.176;2023-04-25T11:22:31;5.10;;;4.60;;
8881;SDS011;4477;48.736;9.176;2023-04-25T11:25:05;5.17;;;4.67;;
8881;SDS011;4477;48.736;9.176;2023-04-25T11:27:32;6.63;;;4.33;;
8881;SDS011;4477;48.736;9.176;2023-04-25T11:30:09;3.73;;;3.43;;
8881;SDS011;4477;48.736;9.176;2023-04-25T11:32:36;4.00;;;3.70;;
8881;SDS011;4477;48.736;9.176;2023-04-25T11:35:03;4.60;;;4.20;;
8881;SDS011;4477;48.736;9.176;2023-04-25T11:37:31;4.67;;;4.27;;
8881;SDS011;4477;48.736;9.176;2023-04-25T11:39:59;4.50;;;4.07;;
8881;SDS011;4477;48.736;9.176;2023-04-25T11:42:27;2.90;;;2.70;;
8881;SDS011;4477;48.736;9.176;2023-04-25T11:44:54;4.47;;;2.87;;
8881;SDS011;4477;48.736;9.176;2023-04-25T11:47:27;4.57;;;3.30;;
8881;SDS011;4477;48.736;9.176;2023-04-25T11:49:54;3.57;;;3.27;;
8881;SDS011;4477;48.736;9.176;2023-04-25T11:52:21;4.53;;;3.17;;
8881;SDS011;4477;48.736;9.176;2023-04-25T11:54:48;3.73;;;3.33;;
8881;SDS011;4477;48.736;9.176;2023-04-25T11:57:18;3.27;;;2.97;;
8881;SDS011;4477;48.736;9.176;2023-04-25T11:59:46;3.00;;;2.80;;
8881;SDS011;4477;48.736;9.176;2023-04-25T12:02:23;4.63;;;3.83;;
8881;SDS011;4477;48.736;9.176;2023-04-25T12:04:51;4.97;;;4.40;;
8881;SDS011;4477;48.736;9.176;2023-04-25T12:07:18;5.00;;;4.53;;
8881;SDS011;4477;48.736;9.176;2023-04-25T12:09:51;5.87;;;5.37;;
8881;SDS011;4477;48.736;9.176;2023-04-25T12:12:18;6.17;;;5.67;;
8881;SDS011;4477;48.736;9.176;2023-04-25T12:14:48;4.93;;;4.43;;
8881;SDS011;4477;48.736;9.176;2023-04-25T12:17:16;5.97;;;5.37;;
8881;SDS011;4477;48.736;9.176;2023-04-25T12:19:43;6.47;;;5.80;;
8881;SDS011;4477;48.736;9.176;2023-04-25T12:22:19;6.07;;;5.47;;
8881;SDS011;4477;48.736;9.176;2023-04-25T12:24:47;6.17;;;5.27;;
8881;SDS011;4477;48.736;9.176;2023-04-25T12:27:14;5.90;;;5.37;;
8881;SDS011;4477;48.736;9.176;2023-04-25T12:29:51;7.20;;;5.70;;
8881;SDS011;4477;48.736;9.176;2023-04-25T12:32:18;6.10;;;5.50;;
8881;SDS011;4477;48.736;9.176;2023-04-25T12:34:45;7.17;;;6.47;;
8881;SDS011;4477;48.736;9.176;2023-04-25T12:37:13;8.07;;;5.83;;
8881;SDS011;4477;48.736;9.176;2023-04-25T12:39:40;7.97;;;7.13;;
8881;SDS011;4477;48.736;9.176;2023-04-25T12:42:08;7.47;;;6.77;;
8881;SDS011;4477;48.736;9.176;2023-04-25T12:44:36;8.30;;;7.30;;
8881;SDS011;4477;48.736;9.176;2023-04-25T12:47:05;9.37;;;7.37;;
8881;SDS011;4477;48.736;9.176;2023-04-25T12:49:32;7.63;;;6.57;;
8881;SDS011;4477;48.736;9.176;2023-04-25T12:51:59;7.33;;;6.63;;
8881;SDS011;4477;48.736;9.176;2023-04-25T12:54:26;7.97;;;6.50;;
8881;SDS011;4477;48.736;9.176;2023-04-25T12:56:54;8.60;;;7.70;;
8881;SDS011;4477;48.736;9.176;2023-04-25T12:59:21;9.77;;;8.03;;
8881;SDS011;4477;48.736;9.176;2023-04-25T13:01:48;8.67;;;7.50;;
8881;SDS011;4477;48.736;9.176;2023-04-25T13:04:16;8.70;;;7.57;;
8881;SDS011;4477;48.736;9.176;2023-04-25T13:06:46;8.33;;;6.70;;
8881;SDS011;4477;48.736;9.176;2023-04-25T13:09:13;9.57;;;8.27;;
8881;SDS011;4477;48.736;9.176;2023-04-25T13:11:40;8.07;;;7.20;;
8881;SDS011;4477;48.736;9.176;2023-04-25T13:14:07;8.43;;;6.80;;
8881;SDS011;4477;48.736;9.176;2023-04-25T13:16:34;6.20;;;5.60;;
8881;SDS011;4477;48.736;9.176;2023-04-25T13:19:01;6.07;;;5.47;;
8881;SDS011;4477;48.736;9.176;2023-04-25T13:21:30;7.40;;;5.87;;
8881;SDS011;4477;48.736;9.176;2023-04-25T13:23:58;5.77;;;5.17;;
8881;SDS011;4477;48.736;9.176;2023-04-25T13:26:25;5.87;;;5.27;;
8881;SDS011;4477;48.736;9.176;2023-04-25T13:28:52;6.93;;;5.60;;
8881;SDS011;4477;48.736;9.176;2023-04-25T13:31:19;6.53;;;5.77;;
8881;SDS011;4477;48.736;9.176;2023-04-25T13:33:46;5.83;;;5.23;;
8881;SDS011;4477;48.736;9.176;2023-04-25T13:36:13;6.23;;;5.00;;
8881;SDS011;4477;48.736;9.176;2023-04-25T13:38:42;8.73;;;6.13;;
8881;SDS011;4477;48.736;9.176;2023-04-25T13:41:12;6.13;;;5.23;;
8881;SDS011;4477;48.736;9.176;2023-04-25T13:43:43;8.30;;;5.90;;
8881;SDS011;4477;48.736;9.176;2023-04-25T13:46:11;7.87;;;6.13;;
8881;SDS011;4477;48.736;9.176;2023-04-25T13:48:40;7.37;;;6.23;;
8881;SDS011;4477;48.736;9.176;2023-04-25T13:51:11;8.50;;;6.87;;
8881;SDS011;4477;48.736;9.176;2023-04-25T13:53:38;7.77;;;6.97;;
8881;SDS011;4477;48.736;9.176;2023-04-25T13:56:07;6.73;;;6.13;;
8881;SDS011;4477;48.736;9.176;2023-04-25T13:58:34;9.23;;;6.97;;
8881;SDS011;4477;48.736;9.176;2023-04-25T14:01:01;8.90;;;8.00;;
8881;SDS011;4477;48.736;9.176;2023-04-25T14:03:29;9.23;;;8.33;;
8881;SDS011;4477;48.736;9.176;2023-04-25T14:05:56;9.60;;;8.70;;
8881;SDS011;4477;48.736;9.176;2023-04-25T14:08:24;8.30;;;7.60;;
8881;SDS011;4477;48.736;9.176;2023-04-25T14:10:51;8.30;;;7.23;;
8881;SDS011;4477;48.736;9.176;2023-04-25T14:13:19;8.90;;;7.03;;
8881;SDS011;4477;48.736;9.176;2023-04-25T14:15:46;6.60;;;6.00;;
8881;SDS011;4477;48.736;9.176;2023-04-25T14:18:13;6.23;;;5.63;;
8881;SDS011;4477;48.736;9.176;2023-04-25T14:20:40;5.90;;;5.30;;
8881;SDS011;4477;48.736;9.176;2023-04-25T14:23:07;6.47;;;5.87;;
8881;SDS011;4477;48.736;9.176;2023-04-25T14:25:34;7.40;;;6.70;;
8881;SDS011;4477;48.736;9.176;2023-04-25T14:28:02;7.30;;;6.60;;
8881;SDS011;4477;48.736;9.176;2023-04-25T14:30:31;7.37;;;6.67;;
8881;SDS011;4477;48.736;9.176;2023-04-25T14:32:58;8.07;;;7.37;;
8881;SDS011;4477;48.736;9.176;2023-04-25T14:35:25;7.77;;;7.07;;
8881;SDS011;4477;48.736;9.176;2023-04-25T14:37:52;8.30;;;6.67;;
8881;SDS011;4477;48.736;9.176;2023-04-25T14:40:20;6.73;;;6.10;;
8881;SDS011;4477;48.736;9.176;2023-04-25T14:42:48;5.60;;;5.10;;
8881;SDS011;4477;48.736;9.176;2023-04-25T14:45:15;6.10;;;4.77;;
8881;SDS011;4477;48.736;9.176;2023-04-25T14:47:43;5.73;;;4.90;;
8881;SDS011;4477;48.736;9.176;2023-04-25T14:50:10;6.13;;;5.53;;
8881;SDS011;4477;48.736;9.176;2023-04-25T14:52:38;5.97;;;5.47;;
8881;SDS011;4477;48.736;9.176;2023-04-25T14:55:05;5.47;;;4.97;;
8881;SDS011;4477;48.736;9.176;2023-04-25T14:57:32;5.43;;;4.93;;
8881;SDS011;4477;48.736;9.176;2023-04-25T14:59:59;4.87;;;4.40;;
8881;SDS011;4477;48.736;9.176;2023-04-25T15:02:27;4.30;;;3.90;;
8881;SDS011;4477;48.736;9.176;2023-04-25T15:04:55;4.80;;;4.40;;
8881;SDS011;4477;48.736;9.176;2023-04-25T15:07:23;4.50;;;4.10;;
8881;SDS011;4477;48.736;9.176;2023-04-25T15:09:50;4.63;;;4.17;;
8881;SDS011;4477;48.736;9.176;2023-04-25T15:12:20;5.57;;;3.87;;
8881;SDS011;4477;48.736;9.176;2023-04-25T15:14:47;4.20;;;3.77;;
8881;SDS011;4477;48.736;9.176;2023-04-25T15:17:14;4.27;;;3.87;;
8881;SDS011;4477;48.736;9.176;2023-04-25T15:19:41;5.03;;;3.70;;
8881;SDS011;4477;48.736;9.176;2023-04-25T15:22:09;5.70;;;3.33;;
8881;SDS011;4477;48.736;9.176;2023-04-25T15:24:36;3.57;;;3.23;;
8881;SDS011;4477;48.736;9.176;2023-04-25T15:27:03;3.87;;;3.47;;